He Yong — VRFT8 — position and weather

sailwx.info

Track history (hours):
 
Tides and Currents Weather Stations Pressure Air Temp Water Temp Dewpoint Dewpoint Depression Visibility Wind Speed Wind Dir Waves Ship Positions

He Yong

Last reported at 2018-Jun-07 17:02 UTC. Time now 2018-Jun-22 14:53 UTC.
Position N 01°29' E 103°06'.
Warning: this ship's position is 14 days out of date.

Length 327 m; draft 13.5 m.

Type: Cargo ship. MMSI: 477614600.

Date/timePositionNaut miles runAvg speedWind from/ knotsBaromVisibWave heightAir tempDewpointWater temp
2018-Jun-07 17:02N 01°29' E 103°06'113.6
2018-Jun-07 17:00N 01°28' E 103°06'713.6
2018-Jun-07 16:28N 01°24' E 103°12'613.8
2018-Jun-07 16:00N 01°20' E 103°17'714.0
2018-Jun-07 15:30N 01°16' E 103°23'713.1
2018-Jun-07 15:00N 01°14' E 103°29'713.3
2018-Jun-07 14:30N 01°12' E 103°35'611.3
2018-Jun-07 14:00N 01°10' E 103°41'510.8
2018-Jun-07 13:30N 01°09' E 103°46'612.6
2018-Jun-07 13:00N 01°12' E 103°52'612.6
2018-Jun-07 12:31N 01°15' E 103°57'612.1
2018-Jun-07 12:00N 01°16' E 104°03'4 7.8
2018-Jun-07 11:31N 01°17' E 104°07'2 3.8
2018-Jun-07 11:00N 01°18' E 104°06'1 1.9
2018-Jun-07 10:25N 01°18' E 104°05'0 0.0
2018-Jun-07 09:10N 01°18' E 104°05'0 0.0
2018-Jun-07 08:52N 01°18' E 104°05'0 0.0
2018-Jun-07 08:14N 01°18' E 104°05'0 0.1
2018-Jun-07 07:50N 01°18' E 104°05'0 0.1
2018-Jun-07 07:23N 01°18' E 104°05'0 0.2
2018-Jun-07 06:58N 01°18' E 104°05'0 0.1
2018-Jun-07 06:23N 01°19' E 104°05'0 0.0
2018-Jun-07 05:52N 01°19' E 104°05'0 0.1
2018-Jun-07 05:28N 01°19' E 104°05'0 0.1
2018-Jun-07 04:55N 01°18' E 104°05'0 0.2
2018-Jun-07 04:29N 01°18' E 104°05'0 0.0
2018-Jun-07 03:58N 01°18' E 104°05'0 0.1
2018-Jun-07 03:29N 01°18' E 104°05'0 0.0
2018-Jun-07 02:55N 01°18' E 104°05'0 0.0
2018-Jun-07 02:10N 01°18' E 104°05'0 0.0
2018-Jun-07 01:59N 01°18' E 104°05'0 0.0
2018-Jun-07 01:20N 01°18' E 104°05'0 0.0
2018-Jun-07 00:50N 01°18' E 104°05'0 0.0
2018-Jun-07 00:28N 01°18' E 104°05'0 0.0
2018-Jun-06 23:59N 01°18' E 104°05'0 0.0
2018-Jun-06 23:16N 01°18' E 104°05'0 0.0
2018-Jun-06 22:59N 01°18' E 104°05'0 0.1
2018-Jun-06 22:08N 01°18' E 104°05'0 0.1
2018-Jun-06 21:58N 01°18' E 104°05'0 0.0
2018-Jun-06 21:29N 01°18' E 104°05'0 0.1
2018-Jun-06 20:29N 01°19' E 104°05'0 0.2
2018-Jun-06 19:59N 01°18' E 104°05'0 0.1
2018-Jun-06 19:26N 01°18' E 104°05'0 0.1
2018-Jun-06 18:59N 01°18' E 104°05'0 0.0
2018-Jun-06 18:22N 01°18' E 104°05'0 0.1
2018-Jun-06 17:59N 01°18' E 104°05'0 0.0
2018-Jun-06 17:29N 01°18' E 104°05'0 0.0
2018-Jun-06 16:59N 01°18' E 104°05'0 0.0
2018-Jun-06 16:14N 01°18' E 104°05'0 0.0
2018-Jun-06 15:56N 01°18' E 104°05'0 0.0
2018-Jun-06 15:16N 01°18' E 104°05'0 0.0
2018-Jun-06 14:56N 01°18' E 104°05'0 0.0
2018-Jun-06 13:41N 01°18' E 104°05'0 0.0
2018-Jun-06 13:29N 01°18' E 104°05'0 0.0
2018-Jun-06 12:29N 01°18' E 104°05'0 0.0
2018-Jun-06 11:46N 01°18' E 104°05'0 0.1
2018-Jun-06 11:26N 01°18' E 104°05'0 0.1
2018-Jun-06 10:59N 01°18' E 104°05'2 3.7
2018-Jun-06 10:30N 01°17' E 104°06'3 5.5
2018-Jun-06 10:00N 01°17' E 104°09'2 4.7
2018-Jun-06 09:31N 01°17' E 104°11'3 5.9
2018-Jun-06 08:59N 01°18' E 104°14'3 6.8
2018-Jun-06 08:29N 01°18' E 104°17'4 6.9
2018-Jun-06 07:56N 01°20' E 104°21'4 9.8
2018-Jun-06 07:30N 01°23' E 104°24'510.4
2018-Jun-06 07:00N 01°26' E 104°28'  
2018-May-29 14:04N 30°11' E 123°04'411.2
2018-May-29 13:40N 30°15' E 123°04'1211.2
2018-May-29 12:36N 30°23' E 122°53'311.3
2018-May-29 12:21N 30°24' E 122°51'411.6
2018-May-29 11:57N 30°27' E 122°46'511.2
2018-May-29 11:30N 30°30' E 122°42'6 9.3
2018-May-29 10:51N 30°33' E 122°36'3 7.0
2018-May-29 10:29N 30°35' E 122°34'510.0
2018-May-29 10:00N 30°38' E 122°29'4 8.1
2018-May-29 09:30N 30°40' E 122°25'0 0.2
2018-May-29 08:02N 30°40' E 122°25'0 0.0
2018-May-29 06:11N 30°40' E 122°25'0 0.0
2018-May-29 05:59N 30°40' E 122°25'0 0.0
2018-May-29 05:29N 30°40' E 122°25'0 0.0
2018-May-29 04:56N 30°40' E 122°25'0 0.0
2018-May-28 22:41N 30°40' E 122°25'0 0.0
2018-May-28 22:29N 30°40' E 122°25'0 0.0
2018-May-28 21:44N 30°40' E 122°25'0 0.0
2018-May-28 21:20N 30°40' E 122°25'  
Track history (hours):
 
Tides and Currents Weather Stations Pressure Air Temp Water Temp Dewpoint Dewpoint Depression Visibility Wind Speed Wind Dir Waves Ship Positions

He Yong

Last reported at 2018-Jun-07 17:02 UTC. Time now 2018-Jun-22 14:53 UTC.
Position N 01°29' E 103°06'.
Warning: this ship's position is 14 days out of date.

Length 327 m; draft 13.5 m.

Type: Cargo ship. MMSI: 477614600.

Date/timePositionNaut miles runAvg speedWind from/ knotsBaromVisibWave heightAir tempDewpointWater temp
2018-Jun-07 17:02N 01°29' E 103°06'113.6
2018-Jun-07 17:00N 01°28' E 103°06'713.6
2018-Jun-07 16:28N 01°24' E 103°12'613.8
2018-Jun-07 16:00N 01°20' E 103°17'714.0
2018-Jun-07 15:30N 01°16' E 103°23'713.1
2018-Jun-07 15:00N 01°14' E 103°29'713.3
2018-Jun-07 14:30N 01°12' E 103°35'611.3
2018-Jun-07 14:00N 01°10' E 103°41'510.8
2018-Jun-07 13:30N 01°09' E 103°46'612.6
2018-Jun-07 13:00N 01°12' E 103°52'612.6
2018-Jun-07 12:31N 01°15' E 103°57'612.1
2018-Jun-07 12:00N 01°16' E 104°03'4 7.8
2018-Jun-07 11:31N 01°17' E 104°07'2 3.8
2018-Jun-07 11:00N 01°18' E 104°06'1 1.9
2018-Jun-07 10:25N 01°18' E 104°05'0 0.0
2018-Jun-07 09:10N 01°18' E 104°05'0 0.0
2018-Jun-07 08:52N 01°18' E 104°05'0 0.0
2018-Jun-07 08:14N 01°18' E 104°05'0 0.1
2018-Jun-07 07:50N 01°18' E 104°05'0 0.1
2018-Jun-07 07:23N 01°18' E 104°05'0 0.2
2018-Jun-07 06:58N 01°18' E 104°05'0 0.1
2018-Jun-07 06:23N 01°19' E 104°05'0 0.0
2018-Jun-07 05:52N 01°19' E 104°05'0 0.1
2018-Jun-07 05:28N 01°19' E 104°05'0 0.1
2018-Jun-07 04:55N 01°18' E 104°05'0 0.2
2018-Jun-07 04:29N 01°18' E 104°05'0 0.0
2018-Jun-07 03:58N 01°18' E 104°05'0 0.1
2018-Jun-07 03:29N 01°18' E 104°05'0 0.0
2018-Jun-07 02:55N 01°18' E 104°05'0 0.0
2018-Jun-07 02:10N 01°18' E 104°05'0 0.0
2018-Jun-07 01:59N 01°18' E 104°05'0 0.0
2018-Jun-07 01:20N 01°18' E 104°05'0 0.0
2018-Jun-07 00:50N 01°18' E 104°05'0 0.0
2018-Jun-07 00:28N 01°18' E 104°05'0 0.0
2018-Jun-06 23:59N 01°18' E 104°05'0 0.0
2018-Jun-06 23:16N 01°18' E 104°05'0 0.0
2018-Jun-06 22:59N 01°18' E 104°05'0 0.1
2018-Jun-06 22:08N 01°18' E 104°05'0 0.1
2018-Jun-06 21:58N 01°18' E 104°05'0 0.0
2018-Jun-06 21:29N 01°18' E 104°05'0 0.1
2018-Jun-06 20:29N 01°19' E 104°05'0 0.2
2018-Jun-06 19:59N 01°18' E 104°05'0 0.1
2018-Jun-06 19:26N 01°18' E 104°05'0 0.1
2018-Jun-06 18:59N 01°18' E 104°05'0 0.0
2018-Jun-06 18:22N 01°18' E 104°05'0 0.1
2018-Jun-06 17:59N 01°18' E 104°05'0 0.0
2018-Jun-06 17:29N 01°18' E 104°05'0 0.0
2018-Jun-06 16:59N 01°18' E 104°05'0 0.0
2018-Jun-06 16:14N 01°18' E 104°05'0 0.0
2018-Jun-06 15:56N 01°18' E 104°05'0 0.0
2018-Jun-06 15:16N 01°18' E 104°05'0 0.0
2018-Jun-06 14:56N 01°18' E 104°05'0 0.0
2018-Jun-06 13:41N 01°18' E 104°05'0 0.0
2018-Jun-06 13:29N 01°18' E 104°05'0 0.0
2018-Jun-06 12:29N 01°18' E 104°05'0 0.0
2018-Jun-06 11:46N 01°18' E 104°05'0 0.1
2018-Jun-06 11:26N 01°18' E 104°05'0 0.1
2018-Jun-06 10:59N 01°18' E 104°05'2 3.7
2018-Jun-06 10:30N 01°17' E 104°06'3 5.5
2018-Jun-06 10:00N 01°17' E 104°09'2 4.7
2018-Jun-06 09:31N 01°17' E 104°11'3 5.9
2018-Jun-06 08:59N 01°18' E 104°14'3 6.8
2018-Jun-06 08:29N 01°18' E 104°17'4 6.9
2018-Jun-06 07:56N 01°20' E 104°21'4 9.8
2018-Jun-06 07:30N 01°23' E 104°24'510.4
2018-Jun-06 07:00N 01°26' E 104°28'  
2018-May-29 14:04N 30°11' E 123°04'411.2
2018-May-29 13:40N 30°15' E 123°04'1211.2
2018-May-29 12:36N 30°23' E 122°53'311.3
2018-May-29 12:21N 30°24' E 122°51'411.6
2018-May-29 11:57N 30°27' E 122°46'511.2
2018-May-29 11:30N 30°30' E 122°42'6 9.3
2018-May-29 10:51N 30°33' E 122°36'3 7.0
2018-May-29 10:29N 30°35' E 122°34'510.0
2018-May-29 10:00N 30°38' E 122°29'4 8.1
2018-May-29 09:30N 30°40' E 122°25'0 0.2
2018-May-29 08:02N 30°40' E 122°25'0 0.0
2018-May-29 06:11N 30°40' E 122°25'0 0.0
2018-May-29 05:59N 30°40' E 122°25'0 0.0
2018-May-29 05:29N 30°40' E 122°25'0 0.0
2018-May-29 04:56N 30°40' E 122°25'0 0.0
2018-May-28 22:41N 30°40' E 122°25'0 0.0
2018-May-28 22:29N 30°40' E 122°25'0 0.0
2018-May-28 21:44N 30°40' E 122°25'0 0.0
2018-May-28 21:20N 30°40' E 122°25'  

Dump ship's entire track history